Uraga Maru — JD2163 — position and weather

sailwx.info

Track history (hours):
 
Tides and Currents Weather Stations Pressure Air Temp Water Temp Dewpoint Dewpoint Depression Visibility Wind Speed Wind Dir Waves Ship Positions

Uraga Maru

Last reported at 2014-Oct-31 06:33 UTC. Time now 2014-Oct-31 07:03 UTC.
Position N 35°17' E 139°41'.

Length 40 m; draft 2.8 m.

Type: Tug. MMSI: 431101119.

Date/timePositionNaut miles runAvg speedWind from/ knotsBaromVisibWave heightAir tempDewpointWater temp
2014-Oct-31 06:33N 35°17' E 139°41'2 2.4
2014-Oct-31 05:33N 35°19' E 139°40'6 6.4
2014-Oct-31 04:32N 35°15' E 139°46'5 5.0
2014-Oct-31 03:31N 35°19' E 139°43'6 6.5
2014-Oct-31 02:32N 35°25' E 139°47'2 2.5
2014-Oct-31 01:33N 35°22' E 139°47'7 7.3
2014-Oct-31 00:33N 35°17' E 139°41'0 0.0
2014-Oct-30 23:33N 35°17' E 139°41'0 0.0
2014-Oct-30 22:33N 35°17' E 139°41'0 0.0
2014-Oct-30 21:33N 35°17' E 139°41'0 0.0
2014-Oct-30 07:30N 35°17' E 139°41'0 0.0
2014-Oct-30 06:29N 35°17' E 139°41'0 0.0
2014-Oct-30 05:32N 35°17' E 139°41'0 0.0
2014-Oct-30 04:31N 35°17' E 139°41'0 0.0
2014-Oct-30 03:31N 35°17' E 139°41'0 0.0
2014-Oct-30 02:06N 35°17' E 139°41'0 0.0
2014-Oct-30 01:29N 35°17' E 139°41'0 0.0
2014-Oct-30 00:33N 35°17' E 139°41'0 0.0
2014-Oct-29 23:33N 35°17' E 139°41'0 0.0
2014-Oct-29 22:28N 35°17' E 139°41'0 0.0
2014-Oct-29 21:33N 35°17' E 139°41'4 4.3
2014-Oct-29 20:31N 35°13' E 139°43'6 6.6
2014-Oct-29 19:33N 35°20' E 139°43'7 6.5
2014-Oct-29 18:33N 35°26' E 139°42'0 0.0
2014-Oct-29 17:33N 35°26' E 139°42'0 0.0
2014-Oct-29 16:33N 35°26' E 139°42'9 9.1
2014-Oct-29 15:33N 35°17' E 139°44'2 1.8
2014-Oct-29 14:30N 35°19' E 139°43'5 5.1
2014-Oct-29 13:33N 35°23' E 139°40'0 0.1
2014-Oct-29 12:33N 35°23' E 139°40'0 0.0
2014-Oct-29 11:33N 35°23' E 139°40'0 0.0
2014-Oct-29 10:33N 35°23' E 139°40'8 7.2
2014-Oct-29 09:31N 35°25' E 139°49'8 8.3
2014-Oct-29 08:33N 35°19' E 139°44'3 0.7
2014-Oct-29 04:05N 35°17' E 139°41'611.3
2014-Oct-29 03:34N 35°23' E 139°43'7 7.0
2014-Oct-29 02:33N 35°16' E 139°46'3 2.3
2014-Oct-29 01:12N 35°17' E 139°43'2 2.5
2014-Oct-29 00:26N 35°17' E 139°41'0 0.0
2014-Oct-28 23:33N 35°17' E 139°41'0 0.0
2014-Oct-28 22:07N 35°17' E 139°41'0 0.0
2014-Oct-28 21:22N 35°17' E 139°41'0 0.0
2014-Oct-28 20:12N 35°17' E 139°41'0 0.0
2014-Oct-28 11:30N 35°17' E 139°41'0 0.0
2014-Oct-28 08:29N 35°17' E 139°41'0 0.0
2014-Oct-28 07:32N 35°17' E 139°41'0 0.0
2014-Oct-28 02:26N 35°17' E 139°41'0 0.0
2014-Oct-28 01:29N 35°17' E 139°41'0 0.0
2014-Oct-28 00:04N 35°17' E 139°41'0 0.0
2014-Oct-27 23:17N 35°17' E 139°41'0 0.0
2014-Oct-27 22:33N 35°17' E 139°41'6 5.7
2014-Oct-27 21:34N 35°22' E 139°44'5 4.9
2014-Oct-27 20:33N 35°17' E 139°45'3 2.4
2014-Oct-27 19:18N 35°14' E 139°46'5 1.0
2014-Oct-27 14:33N 35°17' E 139°41'0 0.0
2014-Oct-27 13:32N 35°17' E 139°41'0 0.0
2014-Oct-27 12:33N 35°17' E 139°41'0 0.0
2014-Oct-27 11:16N 35°17' E 139°41'0 0.3
2014-Oct-27 10:33N 35°17' E 139°41'1 0.6
2014-Oct-27 09:25N 35°17' E 139°41'2 2.9
2014-Oct-27 08:33N 35°19' E 139°39'2 2.2
2014-Oct-27 07:34N 35°17' E 139°41'0 0.0
2014-Oct-27 06:34N 35°17' E 139°41'0 0.0
2014-Oct-27 05:33N 35°17' E 139°41'0 0.0
2014-Oct-27 04:11N 35°17' E 139°41'0 0.0
2014-Oct-27 03:18N 35°17' E 139°41'0 0.0
2014-Oct-27 02:16N 35°17' E 139°41'0 0.0
2014-Oct-27 01:33N 35°17' E 139°41'0 0.0
2014-Oct-27 00:33N 35°17' E 139°41'0 0.0
2014-Oct-26 23:31N 35°17' E 139°41'0 0.0
2014-Oct-26 21:28N 35°17' E 139°41'0 0.0
2014-Oct-26 18:31N 35°17' E 139°41'0 0.0
2014-Oct-26 17:33N 35°17' E 139°41'0 0.0
2014-Oct-26 16:11N 35°17' E 139°41'0 0.0
2014-Oct-26 15:31N 35°17' E 139°41'0 0.0
2014-Oct-26 14:31N 35°17' E 139°41'0 0.0
2014-Oct-26 13:25N 35°17' E 139°41'0 0.0
2014-Oct-26 12:32N 35°17' E 139°41'0 0.0
2014-Oct-26 11:27N 35°17' E 139°41'0 0.0
2014-Oct-26 10:27N 35°17' E 139°41'0 0.0
2014-Oct-26 09:29N 35°17' E 139°41'0 0.0
2014-Oct-26 07:15N 35°17' E 139°41'0 0.0
2014-Oct-26 06:18N 35°17' E 139°41'0 0.0
2014-Oct-26 05:29N 35°17' E 139°41'0 0.0
2014-Oct-26 03:27N 35°17' E 139°41'0 0.0
2014-Oct-26 02:34N 35°17' E 139°41'0 0.1
2014-Oct-26 01:32N 35°17' E 139°41'1 1.1
2014-Oct-26 00:31N 35°17' E 139°39'2 1.7
2014-Oct-25 23:33N 35°19' E 139°40'0 0.0
2014-Oct-25 22:34N 35°19' E 139°40'3 3.2
2014-Oct-25 21:34N 35°21' E 139°43'7 1.7
2014-Oct-25 17:17N 35°13' E 139°43'0 0.0
2014-Oct-25 16:30N 35°13' E 139°43'0 0.0
2014-Oct-25 15:32N 35°13' E 139°43'0 0.0
2014-Oct-25 14:33N 35°13' E 139°43'0 0.0
2014-Oct-25 13:33N 35°13' E 139°43'0 0.0
2014-Oct-25 12:32N 35°13' E 139°43'0 0.2
2014-Oct-25 11:33N 35°13' E 139°43'6 6.4
2014-Oct-25 10:33N 35°20' E 139°43'4 4.2
2014-Oct-25 09:33N 35°24' E 139°44'0 0.0
2014-Oct-25 08:33N 35°24' E 139°44'6 6.5
2014-Oct-25 07:33N 35°17' E 139°45'5 1.1
2014-Oct-25 02:32N 35°12' E 139°46'1110.7
2014-Oct-25 01:34N 35°22' E 139°42'8 7.9
2014-Oct-25 00:33N 35°29' E 139°47'1 0.8
2014-Oct-24 23:31N 35°29' E 139°46'3 3.1
2014-Oct-24 22:33N 35°26' E 139°46'1212.0
2014-Oct-24 21:32N 35°14' E 139°47'4 4.0
2014-Oct-24 20:30N 35°17' E 139°44'3 2.7
2014-Oct-24 19:32N 35°17' E 139°41'0 0.0
2014-Oct-24 18:03N 35°17' E 139°41'0 0.0
2014-Oct-24 09:21N 35°17' E 139°41'0 0.0
2014-Oct-24 08:16N 35°17' E 139°41'0 0.0
2014-Oct-24 07:24N 35°17' E 139°41'0 0.1
2014-Oct-24 06:29N 35°17' E 139°41'1111.3
2014-Oct-24 05:32N 35°25' E 139°49'5 4.8
2014-Oct-24 04:28N 35°30' E 139°50'3 2.8
2014-Oct-24 03:30N 35°30' E 139°47'9 9.5
2014-Oct-24 02:33N 35°23' E 139°39'3 2.7
2014-Oct-24 01:34N 35°25' E 139°42'2 1.7
2014-Oct-24 00:33N 35°27' E 139°42'5 5.1
2014-Oct-23 23:33N 35°23' E 139°45'6 2.6
2014-Oct-23 21:21N 35°17' E 139°43'2 2.3
2014-Oct-23 20:33N 35°17' E 139°41'0 0.0
2014-Oct-23 19:33N 35°17' E 139°41'0 0.0
2014-Oct-23 18:32N 35°17' E 139°41'0 0.0
2014-Oct-23 17:33N 35°17' E 139°41'0 0.0
2014-Oct-23 16:33N 35°17' E 139°41'0 0.0
2014-Oct-23 15:32N 35°17' E 139°41'0 0.0
2014-Oct-23 14:28N 35°17' E 139°41'0 0.0
2014-Oct-23 13:29N 35°17' E 139°41'0 0.0
2014-Oct-23 12:33N 35°17' E 139°41'0 0.0
2014-Oct-23 11:30N 35°17' E 139°41'0 0.1
2014-Oct-23 10:17N 35°17' E 139°41'7 8.4
2014-Oct-23 09:30N 35°12' E 139°46'1212.3
2014-Oct-23 08:33N 35°23' E 139°42'2 1.8
2014-Oct-23 07:33N 35°23' E 139°40'0 0.3
2014-Oct-23 06:33N 35°23' E 139°40'0 0.0
2014-Oct-23 05:33N 35°23' E 139°40'0 0.0
2014-Oct-23 04:33N 35°23' E 139°40'0 0.0
2014-Oct-23 03:33N 35°23' E 139°40'0 0.0
2014-Oct-23 02:33N 35°23' E 139°40'4 3.6
2014-Oct-23 01:33N 35°25' E 139°44'6 6.5
2014-Oct-23 00:33N 35°18' E 139°44'9 8.8
2014-Oct-22 23:33N 35°10' E 139°47'9 8.8
2014-Oct-22 22:33N 35°18' E 139°42'1 1.1
2014-Oct-22 21:33N 35°17' E 139°41'0 0.0
2014-Oct-22 20:33N 35°17' E 139°41'0 0.0
2014-Oct-22 19:33N 35°17' E 139°41'0 0.0
2014-Oct-22 18:33N 35°17' E 139°41'0 0.0
2014-Oct-22 17:33N 35°17' E 139°41'0 0.0
2014-Oct-22 16:33N 35°17' E 139°41'0 0.0
2014-Oct-22 15:33N 35°17' E 139°41'0 0.0
2014-Oct-22 14:33N 35°17' E 139°41'0 0.0
2014-Oct-22 13:33N 35°17' E 139°41'0 0.0
2014-Oct-22 12:33N 35°17' E 139°41'0 0.0
2014-Oct-22 11:33N 35°17' E 139°41'0 0.0
2014-Oct-22 10:33N 35°17' E 139°41'0 0.0
2014-Oct-22 09:33N 35°17' E 139°41'0 0.0
2014-Oct-22 08:33N 35°17' E 139°41'0 0.0
2014-Oct-22 07:33N 35°17' E 139°41'0 0.0
2014-Oct-22 06:33N 35°17' E 139°41'0 0.0
2014-Oct-22 05:33N 35°17' E 139°41'0 0.0
2014-Oct-22 04:33N 35°17' E 139°41'0 0.0
2014-Oct-22 03:33N 35°17' E 139°41'0 0.0
2014-Oct-22 02:33N 35°17' E 139°41'2 1.7
2014-Oct-22 01:33N 35°18' E 139°42'9 9.1
2014-Oct-22 00:33N 35°25' E 139°49'5 5.2
2014-Oct-21 23:33N 35°21' E 139°45'11 9.3
2014-Oct-21 22:20N 35°10' E 139°47'4 3.0
2014-Oct-21 21:06N 35°14' E 139°46'713.1
2014-Oct-21 20:33N 35°20' E 139°43'3 2.9
2014-Oct-21 19:33N 35°17' E 139°41'1 0.7
2014-Oct-21 18:33N 35°17' E 139°41'  
Track history (hours):
 
Tides and Currents Weather Stations Pressure Air Temp Water Temp Dewpoint Dewpoint Depression Visibility Wind Speed Wind Dir Waves Ship Positions

Uraga Maru

Last reported at 2014-Oct-31 06:33 UTC. Time now 2014-Oct-31 07:03 UTC.
Position N 35°17' E 139°41'.

Length 40 m; draft 2.8 m.

Type: Tug. MMSI: 431101119.

Date/timePositionNaut miles runAvg speedWind from/ knotsBaromVisibWave heightAir tempDewpointWater temp
2014-Oct-31 06:33N 35°17' E 139°41'2 2.4
2014-Oct-31 05:33N 35°19' E 139°40'6 6.4
2014-Oct-31 04:32N 35°15' E 139°46'5 5.0
2014-Oct-31 03:31N 35°19' E 139°43'6 6.5
2014-Oct-31 02:32N 35°25' E 139°47'2 2.5
2014-Oct-31 01:33N 35°22' E 139°47'7 7.3
2014-Oct-31 00:33N 35°17' E 139°41'0 0.0
2014-Oct-30 23:33N 35°17' E 139°41'0 0.0
2014-Oct-30 22:33N 35°17' E 139°41'0 0.0
2014-Oct-30 21:33N 35°17' E 139°41'0 0.0
2014-Oct-30 07:30N 35°17' E 139°41'0 0.0
2014-Oct-30 06:29N 35°17' E 139°41'0 0.0
2014-Oct-30 05:32N 35°17' E 139°41'0 0.0
2014-Oct-30 04:31N 35°17' E 139°41'0 0.0
2014-Oct-30 03:31N 35°17' E 139°41'0 0.0
2014-Oct-30 02:06N 35°17' E 139°41'0 0.0
2014-Oct-30 01:29N 35°17' E 139°41'0 0.0
2014-Oct-30 00:33N 35°17' E 139°41'0 0.0
2014-Oct-29 23:33N 35°17' E 139°41'0 0.0
2014-Oct-29 22:28N 35°17' E 139°41'0 0.0
2014-Oct-29 21:33N 35°17' E 139°41'4 4.3
2014-Oct-29 20:31N 35°13' E 139°43'6 6.6
2014-Oct-29 19:33N 35°20' E 139°43'7 6.5
2014-Oct-29 18:33N 35°26' E 139°42'0 0.0
2014-Oct-29 17:33N 35°26' E 139°42'0 0.0
2014-Oct-29 16:33N 35°26' E 139°42'9 9.1
2014-Oct-29 15:33N 35°17' E 139°44'2 1.8
2014-Oct-29 14:30N 35°19' E 139°43'5 5.1
2014-Oct-29 13:33N 35°23' E 139°40'0 0.1
2014-Oct-29 12:33N 35°23' E 139°40'0 0.0
2014-Oct-29 11:33N 35°23' E 139°40'0 0.0
2014-Oct-29 10:33N 35°23' E 139°40'8 7.2
2014-Oct-29 09:31N 35°25' E 139°49'8 8.3
2014-Oct-29 08:33N 35°19' E 139°44'3 0.7
2014-Oct-29 04:05N 35°17' E 139°41'611.3
2014-Oct-29 03:34N 35°23' E 139°43'7 7.0
2014-Oct-29 02:33N 35°16' E 139°46'3 2.3
2014-Oct-29 01:12N 35°17' E 139°43'2 2.5
2014-Oct-29 00:26N 35°17' E 139°41'0 0.0
2014-Oct-28 23:33N 35°17' E 139°41'0 0.0
2014-Oct-28 22:07N 35°17' E 139°41'0 0.0
2014-Oct-28 21:22N 35°17' E 139°41'0 0.0
2014-Oct-28 20:12N 35°17' E 139°41'0 0.0
2014-Oct-28 11:30N 35°17' E 139°41'0 0.0
2014-Oct-28 08:29N 35°17' E 139°41'0 0.0
2014-Oct-28 07:32N 35°17' E 139°41'0 0.0
2014-Oct-28 02:26N 35°17' E 139°41'0 0.0
2014-Oct-28 01:29N 35°17' E 139°41'0 0.0
2014-Oct-28 00:04N 35°17' E 139°41'0 0.0
2014-Oct-27 23:17N 35°17' E 139°41'0 0.0
2014-Oct-27 22:33N 35°17' E 139°41'6 5.7
2014-Oct-27 21:34N 35°22' E 139°44'5 4.9
2014-Oct-27 20:33N 35°17' E 139°45'3 2.4
2014-Oct-27 19:18N 35°14' E 139°46'5 1.0
2014-Oct-27 14:33N 35°17' E 139°41'0 0.0
2014-Oct-27 13:32N 35°17' E 139°41'0 0.0
2014-Oct-27 12:33N 35°17' E 139°41'0 0.0
2014-Oct-27 11:16N 35°17' E 139°41'0 0.3
2014-Oct-27 10:33N 35°17' E 139°41'1 0.6
2014-Oct-27 09:25N 35°17' E 139°41'2 2.9
2014-Oct-27 08:33N 35°19' E 139°39'2 2.2
2014-Oct-27 07:34N 35°17' E 139°41'0 0.0
2014-Oct-27 06:34N 35°17' E 139°41'0 0.0
2014-Oct-27 05:33N 35°17' E 139°41'0 0.0
2014-Oct-27 04:11N 35°17' E 139°41'0 0.0
2014-Oct-27 03:18N 35°17' E 139°41'0 0.0
2014-Oct-27 02:16N 35°17' E 139°41'0 0.0
2014-Oct-27 01:33N 35°17' E 139°41'0 0.0
2014-Oct-27 00:33N 35°17' E 139°41'0 0.0
2014-Oct-26 23:31N 35°17' E 139°41'0 0.0
2014-Oct-26 21:28N 35°17' E 139°41'0 0.0
2014-Oct-26 18:31N 35°17' E 139°41'0 0.0
2014-Oct-26 17:33N 35°17' E 139°41'0 0.0
2014-Oct-26 16:11N 35°17' E 139°41'0 0.0
2014-Oct-26 15:31N 35°17' E 139°41'0 0.0
2014-Oct-26 14:31N 35°17' E 139°41'0 0.0
2014-Oct-26 13:25N 35°17' E 139°41'0 0.0
2014-Oct-26 12:32N 35°17' E 139°41'0 0.0
2014-Oct-26 11:27N 35°17' E 139°41'0 0.0
2014-Oct-26 10:27N 35°17' E 139°41'0 0.0
2014-Oct-26 09:29N 35°17' E 139°41'0 0.0
2014-Oct-26 07:15N 35°17' E 139°41'0 0.0
2014-Oct-26 06:18N 35°17' E 139°41'0 0.0
2014-Oct-26 05:29N 35°17' E 139°41'0 0.0
2014-Oct-26 03:27N 35°17' E 139°41'0 0.0
2014-Oct-26 02:34N 35°17' E 139°41'0 0.1
2014-Oct-26 01:32N 35°17' E 139°41'1 1.1
2014-Oct-26 00:31N 35°17' E 139°39'2 1.7
2014-Oct-25 23:33N 35°19' E 139°40'0 0.0
2014-Oct-25 22:34N 35°19' E 139°40'3 3.2
2014-Oct-25 21:34N 35°21' E 139°43'7 1.7
2014-Oct-25 17:17N 35°13' E 139°43'0 0.0
2014-Oct-25 16:30N 35°13' E 139°43'0 0.0
2014-Oct-25 15:32N 35°13' E 139°43'0 0.0
2014-Oct-25 14:33N 35°13' E 139°43'0 0.0
2014-Oct-25 13:33N 35°13' E 139°43'0 0.0
2014-Oct-25 12:32N 35°13' E 139°43'0 0.2
2014-Oct-25 11:33N 35°13' E 139°43'6 6.4
2014-Oct-25 10:33N 35°20' E 139°43'4 4.2
2014-Oct-25 09:33N 35°24' E 139°44'0 0.0
2014-Oct-25 08:33N 35°24' E 139°44'6 6.5
2014-Oct-25 07:33N 35°17' E 139°45'5 1.1
2014-Oct-25 02:32N 35°12' E 139°46'1110.7
2014-Oct-25 01:34N 35°22' E 139°42'8 7.9
2014-Oct-25 00:33N 35°29' E 139°47'1 0.8
2014-Oct-24 23:31N 35°29' E 139°46'3 3.1
2014-Oct-24 22:33N 35°26' E 139°46'1212.0
2014-Oct-24 21:32N 35°14' E 139°47'4 4.0
2014-Oct-24 20:30N 35°17' E 139°44'3 2.7
2014-Oct-24 19:32N 35°17' E 139°41'0 0.0
2014-Oct-24 18:03N 35°17' E 139°41'0 0.0
2014-Oct-24 09:21N 35°17' E 139°41'0 0.0
2014-Oct-24 08:16N 35°17' E 139°41'0 0.0
2014-Oct-24 07:24N 35°17' E 139°41'0 0.1
2014-Oct-24 06:29N 35°17' E 139°41'1111.3
2014-Oct-24 05:32N 35°25' E 139°49'5 4.8
2014-Oct-24 04:28N 35°30' E 139°50'3 2.8
2014-Oct-24 03:30N 35°30' E 139°47'9 9.5
2014-Oct-24 02:33N 35°23' E 139°39'3 2.7
2014-Oct-24 01:34N 35°25' E 139°42'2 1.7
2014-Oct-24 00:33N 35°27' E 139°42'5 5.1
2014-Oct-23 23:33N 35°23' E 139°45'6 2.6
2014-Oct-23 21:21N 35°17' E 139°43'2 2.3
2014-Oct-23 20:33N 35°17' E 139°41'0 0.0
2014-Oct-23 19:33N 35°17' E 139°41'0 0.0
2014-Oct-23 18:32N 35°17' E 139°41'0 0.0
2014-Oct-23 17:33N 35°17' E 139°41'0 0.0
2014-Oct-23 16:33N 35°17' E 139°41'0 0.0
2014-Oct-23 15:32N 35°17' E 139°41'0 0.0
2014-Oct-23 14:28N 35°17' E 139°41'0 0.0
2014-Oct-23 13:29N 35°17' E 139°41'0 0.0
2014-Oct-23 12:33N 35°17' E 139°41'0 0.0
2014-Oct-23 11:30N 35°17' E 139°41'0 0.1
2014-Oct-23 10:17N 35°17' E 139°41'7 8.4
2014-Oct-23 09:30N 35°12' E 139°46'1212.3
2014-Oct-23 08:33N 35°23' E 139°42'2 1.8
2014-Oct-23 07:33N 35°23' E 139°40'0 0.3
2014-Oct-23 06:33N 35°23' E 139°40'0 0.0
2014-Oct-23 05:33N 35°23' E 139°40'0 0.0
2014-Oct-23 04:33N 35°23' E 139°40'0 0.0
2014-Oct-23 03:33N 35°23' E 139°40'0 0.0
2014-Oct-23 02:33N 35°23' E 139°40'4 3.6
2014-Oct-23 01:33N 35°25' E 139°44'6 6.5
2014-Oct-23 00:33N 35°18' E 139°44'9 8.8
2014-Oct-22 23:33N 35°10' E 139°47'9 8.8
2014-Oct-22 22:33N 35°18' E 139°42'1 1.1
2014-Oct-22 21:33N 35°17' E 139°41'0 0.0
2014-Oct-22 20:33N 35°17' E 139°41'0 0.0
2014-Oct-22 19:33N 35°17' E 139°41'0 0.0
2014-Oct-22 18:33N 35°17' E 139°41'0 0.0
2014-Oct-22 17:33N 35°17' E 139°41'0 0.0
2014-Oct-22 16:33N 35°17' E 139°41'0 0.0
2014-Oct-22 15:33N 35°17' E 139°41'0 0.0
2014-Oct-22 14:33N 35°17' E 139°41'0 0.0
2014-Oct-22 13:33N 35°17' E 139°41'0 0.0
2014-Oct-22 12:33N 35°17' E 139°41'0 0.0
2014-Oct-22 11:33N 35°17' E 139°41'0 0.0
2014-Oct-22 10:33N 35°17' E 139°41'0 0.0
2014-Oct-22 09:33N 35°17' E 139°41'0 0.0
2014-Oct-22 08:33N 35°17' E 139°41'0 0.0
2014-Oct-22 07:33N 35°17' E 139°41'0 0.0
2014-Oct-22 06:33N 35°17' E 139°41'0 0.0
2014-Oct-22 05:33N 35°17' E 139°41'0 0.0
2014-Oct-22 04:33N 35°17' E 139°41'0 0.0
2014-Oct-22 03:33N 35°17' E 139°41'0 0.0
2014-Oct-22 02:33N 35°17' E 139°41'2 1.7
2014-Oct-22 01:33N 35°18' E 139°42'9 9.1
2014-Oct-22 00:33N 35°25' E 139°49'5 5.2
2014-Oct-21 23:33N 35°21' E 139°45'11 9.3
2014-Oct-21 22:20N 35°10' E 139°47'4 3.0
2014-Oct-21 21:06N 35°14' E 139°46'713.1
2014-Oct-21 20:33N 35°20' E 139°43'3 2.9
2014-Oct-21 19:33N 35°17' E 139°41'1 0.7
2014-Oct-21 18:33N 35°17' E 139°41'  

Dump ship's entire track history